Time;durP1;ratioP1;P1;durP2;ratioP2;P2;SDS_P1;SDS_P2;PMS_P1;PMS_P2;Temp;Humidity;BMP_temperature;BMP_pressure;BME280_temperature;BME280_humidity;BME280_pressure;Samples;Min_cycle;Max_cycle;Signal;HPM_P1;HPM_P2
2022/02/23 00:00:45;;;;;;;12.93;2.95;;;8.60;99.90;;;;;;5084914;28;20123;-78
2022/02/23 00:03:10;;;;;;;11.82;3.00;;;8.50;99.90;;;;;;5081588;28;20024;-79
2022/02/23 00:05:37;;;;;;;20.77;2.70;;;8.50;99.90;;;;;;5088339;28;20028;-79
2022/02/23 00:08:03;;;;;;;12.30;2.90;;;8.50;99.90;;;;;;5085868;28;20466;-79
2022/02/23 00:10:29;;;;;;;17.27;3.78;;;8.30;99.90;;;;;;5087154;28;20031;-79
2022/02/23 00:12:55;;;;;;;13.63;2.85;;;8.30;99.90;;;;;;5084302;28;20085;-79
2022/02/23 00:15:21;;;;;;;12.77;3.20;;;8.40;99.90;;;;;;5089379;28;20532;-79
2022/02/23 00:17:47;;;;;;;16.08;2.78;;;8.30;99.90;;;;;;5090666;28;20020;-79
2022/02/23 00:20:13;;;;;;;15.55;3.40;;;8.30;99.90;;;;;;5090646;28;20020;-79
2022/02/23 00:22:41;;;;;;;19.38;2.88;;;8.30;99.90;;;;;;5085803;28;20484;-79
2022/02/23 00:25:08;;;;;;;13.77;3.17;;;8.40;99.90;;;;;;5087960;28;20031;-79
2022/02/23 00:27:34;;;;;;;13.25;3.30;;;8.20;99.90;;;;;;5085809;28;20024;-79
2022/02/23 00:30:00;;;;;;;15.43;2.95;;;8.30;99.90;;;;;;5082907;28;20381;-79
2022/02/23 00:32:26;;;;;;;18.15;3.85;;;8.30;99.90;;;;;;5088864;28;20043;-79
2022/02/23 00:34:51;;;;;;;21.08;3.53;;;8.30;99.90;;;;;;5084901;28;20031;-79
2022/02/23 00:37:17;;;;;;;14.63;3.45;;;8.30;99.90;;;;;;5088648;28;20036;-79
2022/02/23 00:39:43;;;;;;;17.83;3.45;;;8.40;99.90;;;;;;5085356;28;20354;-79
2022/02/23 00:42:09;;;;;;;12.35;3.33;;;8.40;99.90;;;;;;5084927;28;20435;-79
2022/02/23 00:44:35;;;;;;;18.48;3.10;;;8.30;99.90;;;;;;5085591;28;20107;-79
2022/02/23 00:47:01;;;;;;;15.43;2.90;;;8.40;99.90;;;;;;5085850;28;20473;-78
2022/02/23 00:49:27;;;;;;;18.02;3.40;;;8.40;99.90;;;;;;5086127;28;20061;-78
2022/02/23 00:51:54;;;;;;;19.52;3.30;;;8.40;99.90;;;;;;5085749;28;20357;-78
2022/02/23 00:54:20;;;;;;;16.98;3.42;;;8.40;99.90;;;;;;5089948;28;20574;-78
2022/02/23 00:56:46;;;;;;;18.55;3.53;;;8.40;99.90;;;;;;5083896;28;20025;-78
2022/02/23 00:59:12;;;;;;;17.00;3.58;;;8.40;99.90;;;;;;5091502;28;20032;-78
2022/02/23 01:01:39;;;;;;;14.88;3.20;;;8.40;99.90;;;;;;5092745;28;20040;-78
2022/02/23 01:04:08;;;;;;;13.45;2.92;;;8.30;99.90;;;;;;5093764;28;20428;-78
2022/02/23 01:06:35;;;;;;;17.20;3.58;;;8.30;99.90;;;;;;5093568;28;20039;-78
2022/02/23 01:09:01;;;;;;;16.60;2.90;;;8.30;99.90;;;;;;5092907;28;20074;-78
2022/02/23 01:11:27;;;;;;;18.10;3.55;;;8.30;99.90;;;;;;5093440;28;20024;-78
2022/02/23 01:13:52;;;;;;;20.02;3.65;;;8.30;99.90;;;;;;5088030;28;20051;-79
2022/02/23 01:16:18;;;;;;;19.20;3.05;;;8.30;99.90;;;;;;5090844;28;20068;-78
2022/02/23 01:18:44;;;;;;;12.15;3.08;;;8.30;99.90;;;;;;5091760;28;20028;-78
2022/02/23 01:21:10;;;;;;;19.40;4.13;;;8.20;99.90;;;;;;5087400;28;20032;-78
2022/02/23 01:23:37;;;;;;;18.10;3.80;;;8.10;99.90;;;;;;5091779;28;20476;-78
2022/02/23 01:26:04;;;;;;;22.38;3.72;;;8.10;99.90;;;;;;5086520;28;20028;-78
2022/02/23 01:28:30;;;;;;;25.13;3.83;;;8.10;99.90;;;;;;5092045;28;20020;-78
2022/02/23 01:30:56;;;;;;;23.77;3.70;;;8.10;99.90;;;;;;5086868;28;20032;-79
2022/02/23 01:33:22;;;;;;;14.73;3.05;;;8.10;99.90;;;;;;5089859;28;20059;-79
2022/02/23 01:35:47;;;;;;;16.48;3.05;;;7.90;99.90;;;;;;5089249;28;20067;-79
2022/02/23 01:38:13;;;;;;;18.40;3.95;;;8.00;99.90;;;;;;5086002;28;20089;-79
2022/02/23 01:40:40;;;;;;;16.55;3.22;;;8.00;99.90;;;;;;5094376;28;20085;-79
2022/02/23 01:43:06;;;;;;;18.73;2.92;;;7.90;99.90;;;;;;5086418;28;20055;-79
2022/02/23 01:45:31;;;;;;;16.08;3.15;;;8.00;99.90;;;;;;5088269;28;20067;-79
2022/02/23 01:47:57;;;;;;;17.60;3.75;;;8.00;99.90;;;;;;5093424;28;20028;-79
2022/02/23 01:50:23;;;;;;;12.63;3.13;;;8.00;99.90;;;;;;5086939;28;20388;-79
2022/02/23 01:52:49;;;;;;;20.60;3.22;;;8.00;99.90;;;;;;5088558;28;20043;-79
2022/02/23 01:55:15;;;;;;;14.23;3.17;;;8.00;99.90;;;;;;5093981;28;20053;-78
2022/02/23 01:57:41;;;;;;;21.67;3.40;;;8.00;99.90;;;;;;5092018;28;20082;-79
2022/02/23 02:00:09;;;;;;;15.63;3.00;;;8.00;99.90;;;;;;5090008;28;20032;-79
2022/02/23 02:02:35;;;;;;;16.58;3.28;;;7.90;99.90;;;;;;5086978;28;20032;-78
2022/02/23 02:05:02;;;;;;;11.50;3.25;;;7.90;99.90;;;;;;5089799;28;20414;-79
2022/02/23 02:07:28;;;;;;;16.13;3.28;;;7.90;99.90;;;;;;5085968;28;20054;-79
2022/02/23 02:09:54;;;;;;;19.52;3.47;;;7.90;99.90;;;;;;5092680;28;20515;-79
2022/02/23 02:12:19;;;;;;;13.77;3.80;;;7.90;99.90;;;;;;5084747;28;20028;-79
2022/02/23 02:14:45;;;;;;;16.92;4.07;;;7.90;99.90;;;;;;5092271;28;20036;-79
2022/02/23 02:17:11;;;;;;;12.07;3.15;;;7.80;99.90;;;;;;5092145;28;20024;-78
2022/02/23 02:19:36;;;;;;;15.13;3.05;;;7.80;99.90;;;;;;5089010;28;20032;-78
2022/02/23 02:22:10;;;;;;;16.88;3.40;;;7.80;99.90;;;;;;5091941;28;20036;-78
2022/02/23 02:24:37;;;;;;;22.50;3.63;;;7.70;99.90;;;;;;5090301;28;20043;-79
2022/02/23 02:27:06;;;;;;;19.75;3.42;;;7.70;99.90;;;;;;5085575;28;20093;-78
2022/02/23 02:29:32;;;;;;;13.88;3.40;;;7.70;99.90;;;;;;5087848;28;20482;-78
2022/02/23 02:31:58;;;;;;;16.80;3.10;;;7.70;99.90;;;;;;5091388;28;20028;-78
2022/02/23 02:34:24;;;;;;;18.40;3.83;;;7.70;99.90;;;;;;5086785;28;20031;-78
2022/02/23 02:36:50;;;;;;;25.42;4.03;;;7.70;99.90;;;;;;5085082;28;20029;-78
2022/02/23 02:39:17;;;;;;;19.58;3.35;;;7.70;99.90;;;;;;5090193;28;20040;-78
2022/02/23 02:41:43;;;;;;;23.63;4.20;;;7.60;99.90;;;;;;5092483;28;20655;-78
2022/02/23 02:44:09;;;;;;;12.23;3.35;;;7.60;99.90;;;;;;5090301;28;20047;-78
2022/02/23 02:46:34;;;;;;;19.40;3.60;;;7.60;99.90;;;;;;5090065;28;20573;-78
2022/02/23 02:49:00;;;;;;;21.70;3.88;;;7.60;99.90;;;;;;5085597;28;20099;-78
2022/02/23 02:51:26;;;;;;;18.98;3.47;;;7.60;99.90;;;;;;5088934;28;20051;-78
2022/02/23 02:53:51;;;;;;;15.88;3.20;;;7.50;99.90;;;;;;5085662;28;20024;-78
2022/02/23 02:56:18;;;;;;;19.13;3.13;;;7.50;99.90;;;;;;5084681;28;20484;-78
2022/02/23 02:58:51;;;;;;;17.42;3.80;;;7.50;99.90;;;;;;5088705;28;20495;-78
2022/02/23 03:01:25;;;;;;;16.73;3.50;;;7.40;99.90;;;;;;5087659;28;20361;-78
2022/02/23 03:03:51;;;;;;;20.70;3.17;;;7.40;99.90;;;;;;5088485;28;20024;-78
2022/02/23 03:06:18;;;;;;;15.07;3.70;;;7.40;99.90;;;;;;5087687;28;20030;-78
2022/02/23 03:08:45;;;;;;;19.20;3.60;;;7.40;99.90;;;;;;5087898;28;20040;-77
2022/02/23 03:11:11;;;;;;;17.23;3.25;;;7.40;99.90;;;;;;5079833;28;20063;-77
2022/02/23 03:13:38;;;;;;;18.20;3.53;;;7.30;99.90;;;;;;5088039;28;20029;-78
2022/02/23 03:16:05;;;;;;;17.25;3.58;;;7.30;99.90;;;;;;5088069;28;20150;-78
2022/02/23 03:18:31;;;;;;;19.13;3.97;;;7.30;99.90;;;;;;5085652;28;20056;-78
2022/02/23 03:20:57;;;;;;;20.52;3.53;;;7.30;99.90;;;;;;5086478;28;20032;-78
2022/02/23 03:23:23;;;;;;;20.73;4.10;;;7.30;99.90;;;;;;5086805;28;20045;-78
2022/02/23 03:25:48;;;;;;;18.25;3.92;;;7.20;99.90;;;;;;5092922;28;20038;-78
2022/02/23 03:28:14;;;;;;;18.33;3.53;;;7.20;99.90;;;;;;5091058;28;20033;-77
2022/02/23 03:30:40;;;;;;;19.35;3.97;;;7.20;99.90;;;;;;5089452;28;20035;-78
2022/02/23 03:33:09;;;;;;;21.85;4.45;;;7.10;99.90;;;;;;5086049;28;20020;-78
2022/02/23 03:35:38;;;;;;;16.17;3.47;;;7.10;99.90;;;;;;5087421;28;20052;-78
2022/02/23 03:38:04;;;;;;;28.45;4.50;;;7.10;99.90;;;;;;5087290;28;20031;-78
2022/02/23 03:40:31;;;;;;;15.95;3.92;;;7.20;99.90;;;;;;5088483;28;20031;-78
2022/02/23 03:42:56;;;;;;;17.35;5.00;;;7.10;99.90;;;;;;5087673;28;20052;-78
2022/02/23 03:45:22;;;;;;;15.68;3.70;;;7.10;99.90;;;;;;5084522;28;20119;-78
2022/02/23 03:47:48;;;;;;;14.55;4.07;;;7.10;99.90;;;;;;5090474;28;20032;-78
2022/02/23 03:50:14;;;;;;;12.50;3.83;;;7.00;99.90;;;;;;5084946;28;20035;-78
2022/02/23 03:52:41;;;;;;;20.77;5.13;;;7.10;99.90;;;;;;5083273;28;20078;-78
2022/02/23 03:55:08;;;;;;;17.02;4.47;;;7.10;99.90;;;;;;5084374;28;20085;-78
2022/02/23 03:57:34;;;;;;;20.63;4.72;;;7.00;99.90;;;;;;5084822;28;20102;-78
2022/02/23 04:00:00;;;;;;;21.50;4.53;;;7.00;99.90;;;;;;5085053;28;20025;-78
2022/02/23 04:02:26;;;;;;;15.90;4.13;;;7.00;99.90;;;;;;5090014;28;20122;-78
2022/02/23 04:04:51;;;;;;;11.32;3.80;;;7.00;99.90;;;;;;5085621;28;20056;-78
2022/02/23 04:07:17;;;;;;;17.88;4.95;;;6.90;99.90;;;;;;5087791;28;20068;-78
2022/02/23 04:09:43;;;;;;;19.63;5.53;;;6.90;99.90;;;;;;5089498;28;20081;-78
2022/02/23 04:12:09;;;;;;;20.10;5.25;;;6.90;99.90;;;;;;5082707;28;20055;-78
2022/02/23 04:14:36;;;;;;;24.35;5.65;;;6.90;99.90;;;;;;5087664;28;20081;-78
2022/02/23 04:17:02;;;;;;;23.85;4.88;;;6.80;99.90;;;;;;5083249;28;20025;-78
2022/02/23 04:19:28;;;;;;;20.08;4.63;;;6.80;99.90;;;;;;5088910;28;20519;-78
2022/02/23 04:21:54;;;;;;;14.50;4.78;;;6.80;99.90;;;;;;5086928;28;20039;-78
2022/02/23 04:24:19;;;;;;;21.58;6.00;;;6.80;99.90;;;;;;5088817;28;20507;-78
2022/02/23 04:26:45;;;;;;;20.40;5.65;;;6.70;99.90;;;;;;5087370;28;20039;-78
2022/02/23 04:29:10;;;;;;;15.35;5.10;;;6.70;99.90;;;;;;5085131;28;20063;-78
2022/02/23 04:31:36;;;;;;;18.48;4.38;;;6.70;99.90;;;;;;5094533;28;20024;-78
2022/02/23 04:34:03;;;;;;;21.42;4.97;;;6.70;99.90;;;;;;5089358;28;20468;-78
2022/02/23 04:36:29;;;;;;;21.90;6.05;;;6.70;99.90;;;;;;5092797;28;20028;-78
2022/02/23 04:38:54;;;;;;;23.17;6.15;;;6.70;99.90;;;;;;5088124;28;20046;-78
2022/02/23 04:41:20;;;;;;;20.00;5.40;;;6.70;99.90;;;;;;5087973;28;20043;-78
2022/02/23 04:43:46;;;;;;;22.73;5.93;;;6.70;99.90;;;;;;5088077;28;20024;-78
2022/02/23 04:46:12;;;;;;;20.98;6.38;;;6.70;99.90;;;;;;5092806;28;20038;-78
2022/02/23 04:48:40;;;;;;;18.90;6.20;;;6.70;99.90;;;;;;5096362;28;20020;-78
2022/02/23 04:51:05;;;;;;;20.45;7.38;;;6.70;99.90;;;;;;5091088;28;20507;-77
2022/02/23 04:53:31;;;;;;;16.58;5.95;;;6.70;99.90;;;;;;5091001;28;20028;-78
2022/02/23 04:55:57;;;;;;;20.08;6.53;;;6.60;99.90;;;;;;5092657;28;20469;-78
2022/02/23 04:58:23;;;;;;;20.88;5.95;;;6.60;99.90;;;;;;5087589;28;20016;-78
2022/02/23 05:00:49;;;;;;;20.20;5.57;;;6.60;99.90;;;;;;5091199;28;20476;-78
2022/02/23 05:03:15;;;;;;;19.30;5.85;;;6.60;99.90;;;;;;5093595;28;20428;-78
2022/02/23 05:05:41;;;;;;;24.77;6.55;;;6.60;99.90;;;;;;5089987;28;20067;-78
2022/02/23 05:08:07;;;;;;;20.58;5.57;;;6.60;99.90;;;;;;5089230;28;20012;-78
2022/02/23 05:10:33;;;;;;;23.02;5.75;;;6.60;99.90;;;;;;5095685;28;20121;-78
2022/02/23 05:12:58;;;;;;;21.65;6.13;;;6.60;99.90;;;;;;5092527;28;20039;-78
2022/02/23 05:15:24;;;;;;;25.40;6.97;;;6.50;99.90;;;;;;5087180;28;20060;-77
2022/02/23 05:17:50;;;;;;;19.27;6.22;;;6.50;99.90;;;;;;5086922;28;20024;-78
2022/02/23 05:20:15;;;;;;;23.23;7.43;;;6.50;99.90;;;;;;5093496;28;20071;-78
2022/02/23 05:22:45;;;;;;;28.35;7.50;;;6.40;99.90;;;;;;5086778;28;20029;-78
2022/02/23 05:25:11;;;;;;;21.35;6.93;;;6.40;99.90;;;;;;5093337;28;20016;-79
2022/02/23 05:27:37;;;;;;;18.77;6.50;;;6.40;99.90;;;;;;5090750;28;20031;-78
2022/02/23 05:30:04;;;;;;;22.00;7.13;;;6.40;99.90;;;;;;5092520;28;20073;-78
2022/02/23 05:32:29;;;;;;;23.80;6.47;;;6.30;99.90;;;;;;5086004;28;20388;-78
2022/02/23 05:34:55;;;;;;;18.30;6.45;;;6.40;99.90;;;;;;5093103;28;20016;-78
2022/02/23 05:37:21;;;;;;;24.23;7.38;;;6.20;99.90;;;;;;5089748;28;20027;-78
2022/02/23 05:39:46;;;;;;;30.23;7.40;;;6.20;99.90;;;;;;5093061;28;20024;-78
2022/02/23 05:42:12;;;;;;;22.48;7.07;;;6.20;99.90;;;;;;5087283;28;20028;-78
2022/02/23 05:44:38;;;;;;;16.75;6.40;;;6.30;99.90;;;;;;5088761;28;20051;-78
2022/02/23 05:47:03;;;;;;;25.98;6.50;;;6.20;99.90;;;;;;5085089;28;20028;-78
2022/02/23 05:49:29;;;;;;;21.35;6.53;;;6.20;99.90;;;;;;5092987;28;20016;-78
2022/02/23 05:51:55;;;;;;;23.63;6.00;;;6.10;99.90;;;;;;5088008;28;20031;-78
2022/02/23 05:54:20;;;;;;;22.45;6.45;;;6.20;99.90;;;;;;5092033;28;20031;-77
2022/02/23 05:56:47;;;;;;;19.30;6.43;;;6.10;99.90;;;;;;5086622;28;20024;-78
2022/02/23 05:59:13;;;;;;;28.23;7.10;;;6.10;99.90;;;;;;5086642;28;20059;-78
2022/02/23 06:01:39;;;;;;;27.13;6.57;;;6.10;99.90;;;;;;5089290;28;20066;-78
2022/02/23 06:04:05;;;;;;;24.35;7.55;;;6.00;99.90;;;;;;5084270;28;20020;-78
2022/02/23 06:06:31;;;;;;;31.95;7.60;;;6.00;99.90;;;;;;5091306;28;20093;-78
2022/02/23 06:08:57;;;;;;;23.05;6.63;;;6.10;99.90;;;;;;5085338;28;20453;-77
2022/02/23 06:11:23;;;;;;;24.40;7.85;;;6.10;99.90;;;;;;5093154;28;20028;-78
2022/02/23 06:13:53;;;;;;;21.65;7.20;;;6.10;99.90;;;;;;5084983;28;20039;-77
2022/02/23 06:16:23;;;;;;;22.85;8.15;;;6.00;99.90;;;;;;5089302;28;20106;-77
2022/02/23 06:18:50;;;;;;;23.23;7.55;;;6.00;99.90;;;;;;5089812;28;20020;-77
2022/02/23 06:21:15;;;;;;;22.48;7.80;;;6.10;99.90;;;;;;5088579;28;20044;-77
2022/02/23 06:23:43;;;;;;;18.63;8.20;;;6.00;99.90;;;;;;5088476;28;20028;-77
2022/02/23 06:26:09;;;;;;;27.58;8.30;;;6.00;99.90;;;;;;5091270;28;20480;-78
2022/02/23 06:28:35;;;;;;;25.85;8.07;;;6.00;99.90;;;;;;5089565;28;20074;-77
2022/02/23 06:31:01;;;;;;;28.13;9.18;;;5.90;99.90;;;;;;5092332;28;20037;-77
2022/02/23 06:33:28;;;;;;;29.77;9.25;;;5.90;99.90;;;;;;5083409;28;20107;-77
2022/02/23 06:35:54;;;;;;;32.58;9.38;;;6.00;99.90;;;;;;5089442;28;20024;-77
2022/02/23 06:38:20;;;;;;;30.75;8.75;;;6.00;99.90;;;;;;5081639;28;20025;-77
2022/02/23 06:40:48;;;;;;;22.58;8.50;;;5.90;99.90;;;;;;5093937;28;20046;-78
2022/02/23 06:43:18;;;;;;;26.55;8.70;;;5.80;99.90;;;;;;5084788;28;20039;-78
2022/02/23 06:45:47;;;;;;;37.55;10.18;;;5.90;99.90;;;;;;5090261;28;20079;-78
2022/02/23 06:48:12;;;;;;;38.38;10.18;;;5.80;99.90;;;;;;5090315;28;20376;-77
2022/02/23 06:50:39;;;;;;;34.83;10.27;;;5.80;99.90;;;;;;5086567;28;20027;-78
2022/02/23 06:53:06;;;;;;;41.75;11.82;;;5.70;99.90;;;;;;5083356;28;20020;-78
2022/02/23 06:55:32;;;;;;;33.50;11.02;;;5.80;99.90;;;;;;5085297;28;20035;-78
2022/02/23 06:57:58;;;;;;;28.98;10.10;;;5.90;99.90;;;;;;5089792;28;20036;-77
2022/02/23 07:00:25;;;;;;;35.10;10.02;;;5.80;99.90;;;;;;5090343;28;20028;-77
2022/02/23 07:02:53;;;;;;;34.95;9.52;;;5.70;99.90;;;;;;5083671;28;20047;-77
2022/02/23 07:05:19;;;;;;;31.73;10.85;;;5.80;99.90;;;;;;5089678;28;20431;-77
2022/02/23 07:07:46;;;;;;;34.08;11.77;;;5.80;99.90;;;;;;5091353;28;20032;-77
2022/02/23 07:10:21;;;;;;;31.83;9.95;;;5.80;99.90;;;;;;5087471;28;20023;-77
2022/02/23 07:12:46;;;;;;;33.33;10.25;;;5.80;99.90;;;;;;5086717;28;20431;-78
2022/02/23 07:15:12;;;;;;;25.40;9.85;;;5.80;99.90;;;;;;5085922;28;20024;-77
2022/02/23 07:17:38;;;;;;;34.90;11.15;;;5.80;99.90;;;;;;5092797;28;20028;-78
2022/02/23 07:20:04;;;;;;;34.67;11.27;;;5.80;99.90;;;;;;5083407;28;20392;-77
2022/02/23 07:22:30;;;;;;;34.17;11.60;;;5.80;99.90;;;;;;5090950;28;20035;-77
2022/02/23 07:24:55;;;;;;;31.17;10.88;;;5.80;99.90;;;;;;5086271;28;20021;-75
2022/02/23 07:27:21;;;;;;;36.13;10.68;;;5.80;99.90;;;;;;5084788;28;20031;-77
2022/02/23 07:29:47;;;;;;;31.52;11.00;;;5.80;99.90;;;;;;5088626;28;20039;-78
2022/02/23 07:32:13;;;;;;;29.33;10.02;;;5.80;99.90;;;;;;5083416;28;20033;-74
2022/02/23 07:34:40;;;;;;;32.97;10.38;;;5.80;99.90;;;;;;5087142;28;20016;-78
2022/02/23 07:37:06;;;;;;;31.35;9.52;;;5.80;99.90;;;;;;5088966;28;20027;-77
2022/02/23 07:39:31;;;;;;;24.15;9.45;;;5.80;99.90;;;;;;5095349;28;20398;-77
2022/02/23 07:41:58;;;;;;;28.30;10.38;;;5.80;99.90;;;;;;5086884;28;20479;-77
2022/02/23 07:44:23;;;;;;;30.05;9.50;;;5.90;99.90;;;;;;5085526;28;20104;-77
2022/02/23 07:46:49;;;;;;;30.65;9.82;;;5.90;99.90;;;;;;5083107;28;20470;-77
2022/02/23 07:49:16;;;;;;;26.75;9.48;;;5.90;99.90;;;;;;5089215;28;20516;-77
2022/02/23 07:51:42;;;;;;;23.60;9.52;;;5.90;99.90;;;;;;5080590;28;20020;-77
2022/02/23 07:54:08;;;;;;;24.95;8.82;;;5.90;99.90;;;;;;5090447;28;20379;-76
2022/02/23 07:56:34;;;;;;;24.33;8.90;;;6.00;99.90;;;;;;5083467;28;20093;-77
2022/02/23 07:59:00;;;;;;;20.35;8.68;;;6.00;99.90;;;;;;5089137;28;20424;-77
2022/02/23 08:01:30;;;;;;;23.95;8.55;;;6.00;99.90;;;;;;5086146;28;20060;-78
2022/02/23 08:03:56;;;;;;;21.67;8.07;;;6.10;99.90;;;;;;5086235;28;20041;-78
2022/02/23 08:06:22;;;;;;;29.38;9.15;;;6.20;99.90;;;;;;5086673;28;20070;-79
2022/02/23 08:08:48;;;;;;;30.40;9.30;;;6.20;99.90;;;;;;5084699;28;20056;-79
2022/02/23 08:11:18;;;;;;;25.40;8.52;;;6.20;99.90;;;;;;5089468;28;20472;-79
2022/02/23 08:13:44;;;;;;;26.20;8.77;;;6.40;99.90;;;;;;5089147;28;20024;-79
2022/02/23 08:21:40;;;;;;;28.48;8.75;;;6.60;99.90;;;;;;5091676;28;20139;-79
2022/02/23 08:24:06;;;;;;;20.48;7.70;;;6.80;99.90;;;;;;5089210;28;20024;-78
2022/02/23 08:26:32;;;;;;;23.73;8.10;;;6.90;99.90;;;;;;5083937;28;20040;-80
2022/02/23 08:28:57;;;;;;;28.02;7.95;;;7.00;99.90;;;;;;5088528;28;20087;-79
2022/02/23 08:31:23;;;;;;;24.58;8.25;;;7.10;99.90;;;;;;5087821;28;20027;-79
2022/02/23 08:33:49;;;;;;;25.20;8.35;;;7.30;99.90;;;;;;5087576;28;20081;-79
2022/02/23 08:36:14;;;;;;;22.55;8.23;;;7.40;99.90;;;;;;5084082;28;20028;-79
2022/02/23 08:38:41;;;;;;;20.85;7.75;;;7.50;99.90;;;;;;5085908;28;20017;-79
2022/02/23 08:41:08;;;;;;;23.30;7.38;;;7.70;99.90;;;;;;5083480;28;20040;-79
2022/02/23 08:43:34;;;;;;;23.15;8.13;;;7.80;99.90;;;;;;5085341;28;20037;-79
2022/02/23 08:46:00;;;;;;;22.83;7.05;;;7.90;99.90;;;;;;5085415;28;20028;-78
2022/02/23 08:48:27;;;;;;;26.13;7.60;;;8.00;99.90;;;;;;5085768;28;20029;-78
2022/02/23 08:50:53;;;;;;;25.52;7.82;;;8.10;99.90;;;;;;5084653;28;20024;-79
2022/02/23 08:53:18;;;;;;;27.08;7.63;;;8.20;99.90;;;;;;5084021;28;20156;-78
2022/02/23 08:55:44;;;;;;;26.75;7.10;;;8.30;99.90;;;;;;5087878;28;20122;-78
2022/02/23 08:58:13;;;;;;;21.95;6.80;;;8.30;99.90;;;;;;5088307;28;20392;-77
2022/02/23 09:00:40;;;;;;;23.95;7.40;;;8.40;99.90;;;;;;5086426;28;20101;-78
2022/02/23 09:03:06;;;;;;;19.63;6.05;;;8.60;99.90;;;;;;5082496;28;20016;-77
2022/02/23 09:05:32;;;;;;;20.55;7.00;;;8.60;99.90;;;;;;5090411;28;20024;-78
2022/02/23 09:07:57;;;;;;;23.02;6.13;;;8.70;99.90;;;;;;5087009;28;20024;-77
2022/02/23 09:10:23;;;;;;;20.23;7.10;;;8.90;99.90;;;;;;5085769;28;20020;-77
2022/02/23 09:12:49;;;;;;;22.38;5.88;;;9.00;99.90;;;;;;5087962;28;20035;-77
2022/02/23 09:15:17;;;;;;;25.42;5.80;;;9.00;99.90;;;;;;5085327;28;20399;-73
2022/02/23 09:17:44;;;;;;;22.13;6.70;;;9.20;99.90;;;;;;5093139;28;20024;-78
2022/02/23 09:20:11;;;;;;;24.90;6.55;;;9.20;99.90;;;;;;5095099;28;20350;-78
2022/02/23 09:22:36;;;;;;;19.05;5.75;;;9.40;99.90;;;;;;5091334;28;20110;-78
2022/02/23 09:25:03;;;;;;;25.55;6.32;;;9.50;99.90;;;;;;5092670;28;20146;-79
2022/02/23 09:27:28;;;;;;;21.08;5.85;;;9.70;99.90;;;;;;5092044;28;20161;-79
2022/02/23 09:29:54;;;;;;;23.73;5.93;;;9.80;99.90;;;;;;5095062;28;20523;-78
2022/02/23 09:32:21;;;;;;;20.92;6.00;;;9.90;99.90;;;;;;5085673;28;20492;-78
2022/02/23 09:34:48;;;;;;;18.85;5.93;;;10.00;99.90;;;;;;5090898;28;20030;-78
2022/02/23 09:37:15;;;;;;;17.48;5.25;;;10.00;99.90;;;;;;5087110;28;20015;-78
2022/02/23 09:39:41;;;;;;;22.70;5.50;;;10.00;99.90;;;;;;5087561;28;20016;-78
2022/02/23 09:42:10;;;;;;;19.00;4.78;;;10.20;99.90;;;;;;5089705;28;20406;-78
2022/02/23 09:44:42;;;;;;;20.38;4.95;;;10.40;99.90;;;;;;5087155;28;20420;-77
2022/02/23 09:47:09;;;;;;;16.43;5.17;;;10.50;99.90;;;;;;5091376;28;20024;-77
2022/02/23 09:49:36;;;;;;;19.70;5.10;;;10.50;99.90;;;;;;5088461;28;20040;-77
2022/02/23 09:52:02;;;;;;;20.17;4.80;;;10.60;99.90;;;;;;5086430;28;20032;-79
2022/02/23 09:54:28;;;;;;;19.25;3.70;;;10.80;99.90;;;;;;5088719;28;20483;-78
2022/02/23 09:56:54;;;;;;;13.68;3.63;;;10.80;99.90;;;;;;5092615;28;20032;-79
2022/02/23 09:59:21;;;;;;;26.05;4.43;;;10.90;99.90;;;;;;5084655;28;20020;-78
2022/02/23 10:01:48;;;;;;;18.90;4.90;;;11.00;99.90;;;;;;5089659;28;20157;-77
2022/02/23 10:04:17;;;;;;;18.80;4.95;;;11.00;99.90;;;;;;5092616;28;20024;-77
2022/02/23 10:06:43;;;;;;;13.15;4.30;;;11.00;99.90;;;;;;5092989;28;20020;-77
2022/02/23 10:09:11;;;;;;;21.38;5.05;;;11.20;99.90;;;;;;5092053;28;20024;-78
2022/02/23 10:11:40;;;;;;;18.15;4.68;;;11.30;99.90;;;;;;5092721;28;20024;-78
2022/02/23 10:14:07;;;;;;;17.98;4.68;;;11.40;99.90;;;;;;5085158;28;20107;-78
2022/02/23 10:16:46;;;;;;;20.77;4.95;;;11.30;99.90;;;;;;5086855;28;20408;-78
2022/02/23 10:19:17;;;;;;;16.13;4.63;;;11.40;99.90;;;;;;5085691;28;20472;-78
2022/02/23 10:21:55;;;;;;;18.83;5.13;;;11.60;99.90;;;;;;5087851;28;20032;-79
2022/02/23 10:24:27;;;;;;;18.08;3.83;;;11.50;99.90;;;;;;5089546;28;20027;-79
2022/02/23 10:26:59;;;;;;;17.30;4.57;;;11.60;99.90;;;;;;5091025;28;20024;-78
2022/02/23 10:29:26;;;;;;;20.03;4.33;;;11.50;99.90;;;;;;5086217;28;20028;-79
2022/02/23 10:31:51;;;;;;;13.85;3.45;;;11.70;99.90;;;;;;5084378;28;20040;-78
2022/02/23 10:34:20;;;;;;;13.45;4.22;;;11.70;99.90;;;;;;5091781;28;20027;-78
2022/02/23 10:37:04;;;;;;;18.55;4.40;;;11.80;99.90;;;;;;5083665;28;20032;-78
2022/02/23 10:39:40;;;;;;;17.35;4.10;;;11.90;99.90;;;;;;5088657;28;20036;-78
2022/02/23 10:42:11;;;;;;;17.02;3.88;;;12.00;99.90;;;;;;5086120;28;20042;-77
2022/02/23 10:44:45;;;;;;;10.25;3.47;;;12.00;99.90;;;;;;5086683;28;20075;-80
2022/02/23 10:47:25;;;;;;;14.82;3.45;;;12.10;99.90;;;;;;5090123;28;20023;-79
2022/02/23 10:50:24;;;;;;;15.95;4.18;;;12.20;99.90;;;;;;5090058;28;20028;-79
2022/02/23 10:52:54;;;;;;;14.07;3.53;;;12.10;99.90;;;;;;5084502;28;20576;-79
2022/02/23 10:55:31;;;;;;;12.23;3.35;;;12.20;99.90;;;;;;5090502;28;20028;-78
2022/02/23 10:58:02;;;;;;;17.55;3.92;;;12.30;99.90;;;;;;5083809;28;20023;-80
2022/02/23 11:00:35;;;;;;;12.98;3.17;;;12.40;99.90;;;;;;5088406;28;20031;-79
2022/02/23 11:03:02;;;;;;;13.13;3.20;;;12.50;99.90;;;;;;5080441;28;20026;-79
2022/02/23 11:05:28;;;;;;;15.25;3.55;;;12.60;99.90;;;;;;5090469;28;20024;-79
2022/02/23 11:07:56;;;;;;;17.05;3.53;;;12.60;99.90;;;;;;5085412;28;20034;-79
2022/02/23 11:10:22;;;;;;;12.75;3.00;;;12.60;99.90;;;;;;5086918;28;20059;-79
2022/02/23 11:12:50;;;;;;;15.40;3.88;;;12.60;99.90;;;;;;5087227;28;20035;-79
2022/02/23 11:15:21;;;;;;;15.30;3.58;;;12.70;99.90;;;;;;5086572;28;20039;-80
2022/02/23 11:17:52;;;;;;;12.70;3.35;;;12.70;99.90;;;;;;5087421;28;20080;-79
2022/02/23 11:20:29;;;;;;;12.88;3.15;;;12.90;99.90;;;;;;5089039;28;20031;-79
2022/02/23 11:23:00;;;;;;;15.73;4.05;;;12.80;99.90;;;;;;5088862;28;20035;-79
2022/02/23 11:25:33;;;;;;;9.38;3.22;;;12.80;99.90;;;;;;5088273;28;20024;-80
2022/02/23 11:28:22;;;;;;;13.07;2.80;;;12.80;99.90;;;;;;5088397;28;20028;-80
2022/02/23 11:31:01;;;;;;;15.43;3.47;;;12.70;99.90;;;;;;5085080;28;20071;-79
2022/02/23 11:34:02;;;;;;;14.52;3.15;;;12.80;99.90;;;;;;5085914;28;20035;-80
2022/02/23 11:36:42;;;;;;;12.57;3.10;;;12.80;99.90;;;;;;5088867;28;20050;-80
2022/02/23 11:39:16;;;;;;;16.08;3.75;;;12.80;99.90;;;;;;5090921;28;20024;-80
2022/02/23 11:41:52;;;;;;;11.98;3.15;;;12.90;99.90;;;;;;5091497;28;20046;-80
2022/02/23 11:44:20;;;;;;;11.25;3.53;;;12.80;99.90;;;;;;5089567;28;20415;-80
2022/02/23 11:46:52;;;;;;;11.65;3.13;;;12.90;99.90;;;;;;5085204;28;20024;-80
2022/02/23 11:49:22;;;;;;;11.10;3.63;;;13.00;99.90;;;;;;5086142;28;21119;-80
2022/02/23 11:52:03;;;;;;;10.38;3.13;;;13.00;99.90;;;;;;5084070;28;20024;-80
2022/02/23 11:54:47;;;;;;;7.93;2.65;;;13.10;99.90;;;;;;5084978;28;20024;-79
2022/02/23 11:57:47;;;;;;;11.40;2.97;;;13.00;99.90;;;;;;5087997;28;20033;-79
2022/02/23 12:00:34;;;;;;;11.95;3.00;;;13.10;99.90;;;;;;5086294;28;20055;-80
2022/02/23 12:03:27;;;;;;;8.40;2.90;;;13.20;99.90;;;;;;5081692;28;20036;-80
2022/02/23 12:05:52;;;;;;;11.83;2.63;;;13.20;99.90;;;;;;5082739;28;20031;-80
2022/02/23 12:08:33;;;;;;;12.30;3.25;;;13.30;99.90;;;;;;5087925;28;20278;-80
2022/02/23 12:10:59;;;;;;;11.38;2.97;;;13.20;99.90;;;;;;5086514;28;20154;-79
2022/02/23 12:13:35;;;;;;;9.73;2.58;;;13.30;99.90;;;;;;5083403;28;20031;-80
2022/02/23 12:16:21;;;;;;;11.80;2.65;;;13.30;99.90;;;;;;5080230;28;20025;-80
2022/02/23 12:18:47;;;;;;;14.02;3.72;;;13.30;99.90;;;;;;5089064;28;20020;-80
2022/02/23 12:21:13;;;;;;;10.68;3.22;;;13.40;99.90;;;;;;5085806;28;20024;-81
2022/02/23 12:23:39;;;;;;;9.23;2.53;;;13.30;99.90;;;;;;5087013;28;20183;-80
2022/02/23 12:26:04;;;;;;;12.25;2.38;;;13.20;99.90;;;;;;5087203;28;20381;-81
2022/02/23 12:28:38;;;;;;;6.95;2.70;;;13.30;99.90;;;;;;5087767;28;20028;-80
2022/02/23 12:31:14;;;;;;;7.18;2.25;;;13.30;99.90;;;;;;5090077;28;20051;-80
2022/02/23 12:33:41;;;;;;;9.85;2.45;;;13.30;99.90;;;;;;5086867;28;20560;-81
2022/02/23 12:36:14;;;;;;;9.57;2.38;;;13.20;99.90;;;;;;5083987;28;20048;-81
2022/02/23 12:38:46;;;;;;;17.42;3.20;;;13.20;99.90;;;;;;5090659;28;20051;-81
2022/02/23 12:41:23;;;;;;;6.85;2.17;;;13.30;99.90;;;;;;5090356;28;20039;-80
2022/02/23 12:44:02;;;;;;;9.98;2.53;;;13.40;99.90;;;;;;5087724;28;20036;-80
2022/02/23 12:46:35;;;;;;;6.28;1.75;;;13.40;99.90;;;;;;5086384;28;20024;-80
2022/02/23 12:49:01;;;;;;;12.95;2.30;;;13.40;99.90;;;;;;5088754;28;20039;-80
2022/02/23 12:51:29;;;;;;;8.18;2.03;;;13.40;99.90;;;;;;5090582;28;20091;-81